SRC weather

Santa Rosalia Airstrip
Cananea, Tabasco, Mexico

Public forecast

Using degrees Celsius for public forecast. Weather courtesy of forecast.io.

METAR (pilot weather report)

Closest report is Carlos Rovirosa Pérez International Airport, 31.4 nm (58.2 km) ESE. Retrieved 2019/06/20 13:43 UTC (0 seconds ago):

MMVA 201343Z 12006KT 7SM SKC 29/24 A2987

TAF (pilot weather forecast)

Forecast is more than 6 hours old.

Closest forecast is Carlos Rovirosa Pérez International Airport, 31.4 nm (58.2 km) ESE. Retrieved 2019/06/20 06:35 UTC (7 hours ago):

TAF MMVA 200528Z 2006/2106 00000KT 6SM HZ SCT020 SCT250 FM201600 06008KT P6SM SCT015 FM210300 03005KT P6SM SCT020 BKN250